createdAt,value
2018-02-15T00:01:28.174Z,-2.00
2018-02-15T00:03:56.544Z,-2.00
2018-02-15T00:06:25.677Z,-1.60
2018-02-15T00:08:54.373Z,-1.60
2018-02-15T00:11:22.739Z,-1.70
2018-02-15T00:13:51.878Z,-2.00
2018-02-15T00:16:20.334Z,-2.00
2018-02-15T00:18:48.730Z,-1.90
2018-02-15T00:21:17.894Z,-1.80
2018-02-15T00:23:46.265Z,-1.80
2018-02-15T00:26:14.850Z,-1.80
2018-02-15T00:28:43.218Z,-1.90
2018-02-15T00:31:12.454Z,-1.90
2018-02-15T00:33:40.858Z,-1.90
2018-02-15T00:36:09.226Z,-1.70
2018-02-15T00:38:37.630Z,-1.60
2018-02-15T00:41:06.022Z,-1.60
2018-02-15T00:43:34.422Z,-1.70
2018-02-15T00:46:02.786Z,-1.50
2018-02-15T00:48:31.918Z,-1.60
2018-02-15T00:51:00.310Z,-1.60
2018-02-15T00:53:28.682Z,-1.80
2018-02-15T00:55:58.006Z,-1.80
2018-02-15T00:58:26.401Z,-1.80
2018-02-15T01:00:55.001Z,-1.80
2018-02-15T01:03:23.378Z,-1.70
2018-02-15T01:05:51.741Z,-1.60
2018-02-15T01:08:20.174Z,-1.60
2018-02-15T01:10:48.537Z,-1.80
2018-02-15T01:13:17.702Z,-1.70
2018-02-15T01:15:46.107Z,-1.70
2018-02-15T01:18:14.555Z,-1.70
2018-02-15T01:20:42.945Z,-1.80
2018-02-15T01:23:11.646Z,-1.80
2018-02-15T01:25:40.226Z,-1.70
2018-02-15T01:28:09.590Z,-1.50
2018-02-15T01:30:37.990Z,-1.60
2018-02-15T01:33:06.354Z,-1.60
2018-02-15T01:35:34.749Z,-1.50
2018-02-15T01:38:03.222Z,-1.40
2018-02-15T01:40:31.618Z,-1.40
2018-02-15T01:42:59.986Z,-1.30
2018-02-15T01:45:29.123Z,-1.70
2018-02-15T01:47:57.608Z,-1.80
2018-02-15T01:50:26.009Z,-1.70
2018-02-15T01:52:54.373Z,-1.70
2018-02-15T01:55:23.538Z,-2.10
2018-02-15T01:57:51.903Z,-2.10
2018-02-15T02:00:20.302Z,-2.20
2018-02-15T02:02:48.697Z,-2.10
2018-02-15T02:05:17.099Z,-1.90
2018-02-15T02:07:45.461Z,-1.70
2018-02-15T02:10:13.870Z,-1.60
2018-02-15T02:12:42.230Z,-1.70
2018-02-15T02:15:10.611Z,-1.80
2018-02-15T02:17:39.777Z,-1.90
2018-02-15T02:20:08.143Z,-1.90
2018-02-15T02:22:36.574Z,-1.90
2018-02-15T02:25:04.941Z,-1.80
2018-02-15T02:27:33.512Z,-1.90
2018-02-15T02:30:01.886Z,-1.90
2018-02-15T02:35:05.078Z,-1.70
2018-02-15T02:37:33.454Z,-1.60
2018-02-15T02:40:01.851Z,-1.60
2018-02-15T02:42:30.229Z,-1.70
2018-02-15T02:44:58.627Z,-1.70
2018-02-15T02:47:26.994Z,-1.70
2018-02-15T02:49:55.392Z,-1.70
2018-02-15T02:52:23.761Z,-1.60
2018-02-15T02:54:52.161Z,-1.60
2018-02-15T02:57:20.561Z,-1.70
2018-02-15T02:59:48.966Z,-1.50
2018-02-15T03:02:17.370Z,-1.60
2018-02-15T03:04:45.786Z,-1.70
2018-02-15T03:07:14.213Z,-1.80
2018-02-15T03:09:42.586Z,-1.70
2018-02-15T03:12:11.750Z,-1.80
2018-02-15T03:14:41.650Z,-1.90
2018-02-15T03:17:10.078Z,-1.90
2018-02-15T03:19:38.449Z,-1.80
2018-02-15T03:22:06.858Z,-1.70
2018-02-15T03:24:35.226Z,-1.60
2018-02-15T03:27:03.622Z,-1.70
2018-02-15T03:29:31.986Z,-1.60
2018-02-15T03:32:00.355Z,-1.60
2018-02-15T03:34:29.523Z,-1.50
2018-02-15T03:36:57.879Z,-1.50
2018-02-15T03:39:26.246Z,-1.40
2018-02-15T03:41:55.411Z,-1.30
2018-02-15T03:44:23.813Z,-1.30
2018-02-15T03:46:52.215Z,-1.40
2018-02-15T03:49:20.620Z,-1.60
2018-02-15T03:51:49.073Z,-1.60
2018-02-15T03:54:17.437Z,-1.50
2018-02-15T03:56:45.804Z,-1.40
2018-02-15T03:59:14.977Z,-1.30
2018-02-15T04:01:43.341Z,-1.30
2018-02-15T04:04:11.708Z,-1.30
2018-02-15T04:06:40.870Z,-1.40
2018-02-15T04:09:09.235Z,-1.50
2018-02-15T04:11:37.738Z,-1.50
2018-02-15T04:14:06.107Z,-1.50
2018-02-15T04:16:34.474Z,-1.50
2018-02-15T04:19:03.645Z,-1.60
2018-02-15T04:21:32.043Z,-1.60
2018-02-15T04:24:00.406Z,-1.60
2018-02-15T04:26:28.805Z,-1.50
2018-02-15T04:28:57.201Z,-1.50
2018-02-15T04:31:25.565Z,-1.70
2018-02-15T04:33:53.965Z,-1.60
2018-02-15T04:36:22.325Z,-1.70
2018-02-15T04:38:51.490Z,-1.40
2018-02-15T04:41:19.954Z,-1.40
2018-02-15T04:43:48.350Z,-1.30
2018-02-15T04:46:16.755Z,-1.40
2018-02-15T04:48:45.127Z,-1.30
2018-02-15T04:51:13.533Z,-1.30
2018-02-15T04:53:41.904Z,-1.20
2018-02-15T04:56:10.301Z,-1.40
2018-02-15T04:58:38.666Z,-1.30
2018-02-15T05:01:07.801Z,-1.40
2018-02-15T05:03:36.202Z,-1.40
2018-02-15T05:06:04.601Z,-1.30
2018-02-15T05:08:33.014Z,-1.40
2018-02-15T05:11:01.388Z,-1.30
2018-02-15T05:13:29.758Z,-1.20
2018-02-15T05:15:58.157Z,-1.40
2018-02-15T05:18:26.553Z,-1.40
2018-02-15T05:20:54.925Z,-1.30
2018-02-15T05:23:23.294Z,-1.30
2018-02-15T05:25:52.575Z,-1.30
2018-02-15T05:28:20.962Z,-1.30
2018-02-15T05:30:49.331Z,-1.30
2018-02-15T05:33:17.726Z,-1.50
2018-02-15T05:35:46.125Z,-1.60
2018-02-15T05:38:14.493Z,-1.60
2018-02-15T05:40:42.986Z,-1.60
2018-02-15T05:43:11.393Z,-1.70
2018-02-15T05:45:39.757Z,-1.60
2018-02-15T05:48:08.122Z,-1.70
2018-02-15T05:50:37.289Z,-1.70
2018-02-15T05:53:05.657Z,-1.70
2018-02-15T05:55:34.061Z,-1.70
2018-02-15T05:58:02.423Z,-1.70
2018-02-15T06:00:31.549Z,-1.70
2018-02-15T06:02:59.965Z,-1.70
2018-02-15T06:05:28.337Z,-1.70
2018-02-15T06:07:56.737Z,-1.70
2018-02-15T06:10:25.097Z,-1.50
2018-02-15T06:12:54.258Z,-1.70
2018-02-15T06:15:22.618Z,-1.70
2018-02-15T06:17:51.018Z,-1.80
2018-02-15T06:20:19.588Z,-1.80
2018-02-15T06:22:48.389Z,-1.90
2018-02-15T06:25:16.982Z,-1.90
2018-02-15T06:27:46.398Z,-1.90
2018-02-15T06:30:16.123Z,-2.00
2018-02-15T06:32:44.717Z,-2.00
2018-02-15T06:35:14.132Z,-2.00
2018-02-15T06:37:43.549Z,-2.10
2018-02-15T06:40:12.145Z,-2.10
2018-02-15T06:42:40.843Z,-2.10
2018-02-15T06:45:10.258Z,-2.00
2018-02-15T06:47:39.674Z,-2.10
2018-02-15T06:50:09.091Z,-2.00
2018-02-15T06:52:38.915Z,-1.90
2018-02-15T06:55:07.560Z,-1.90
2018-02-15T06:57:36.062Z,-1.90
2018-02-15T07:00:04.606Z,-1.90
2018-02-15T07:02:33.102Z,-1.80
2018-02-15T07:05:01.794Z,-1.70
2018-02-15T07:07:30.417Z,-1.90
2018-02-15T07:09:59.294Z,-1.90
2018-02-15T07:12:28.712Z,-1.90
2018-02-15T07:14:57.641Z,-1.90
2018-02-15T07:17:26.720Z,-1.90
2018-02-15T07:19:56.239Z,-1.90
2018-02-15T07:22:24.835Z,-1.90
2018-02-15T07:24:54.197Z,-1.80
2018-02-15T07:27:23.267Z,-1.80
2018-02-15T07:29:51.853Z,-1.80
2018-02-15T07:32:21.218Z,-1.90
2018-02-15T07:34:49.870Z,-2.00
2018-02-15T07:37:18.564Z,-1.90
2018-02-15T07:39:47.978Z,-2.00
2018-02-15T07:42:17.392Z,-2.00
2018-02-15T07:44:46.807Z,-2.10
2018-02-15T07:47:16.223Z,-2.10
2018-02-15T07:49:45.639Z,-2.00
2018-02-15T07:52:15.054Z,-1.90
2018-02-15T07:54:44.469Z,-1.90
2018-02-15T07:57:13.885Z,-1.80
2018-02-15T07:59:43.403Z,-1.80
2018-02-15T08:02:12.818Z,-1.90
2018-02-15T08:04:42.131Z,-1.90
2018-02-15T08:07:11.550Z,-1.90
2018-02-15T08:09:40.143Z,-1.90
2018-02-15T08:12:09.559Z,-1.90
2018-02-15T08:14:38.974Z,-1.80
2018-02-15T08:17:08.390Z,-1.70
2018-02-15T08:19:37.806Z,-1.60
2018-02-15T08:22:06.403Z,-1.60
2018-02-15T08:24:34.997Z,-1.60
2018-02-15T08:27:04.618Z,-1.50
2018-02-15T08:29:33.317Z,-1.50
2018-02-15T08:32:02.775Z,-1.40
2018-02-15T08:34:31.533Z,-1.40
2018-02-15T08:37:00.949Z,-1.40
2018-02-15T08:39:30.364Z,-1.30
2018-02-15T08:41:59.780Z,-1.20
2018-02-15T08:44:29.195Z,-1.30
2018-02-15T08:46:58.611Z,-1.20
2018-02-15T08:49:29.257Z,-1.20
2018-02-15T08:51:58.773Z,-1.20
2018-02-15T08:54:28.191Z,-1.10
2018-02-15T08:56:56.888Z,-1.10
2018-02-15T08:59:26.303Z,-1.00
2018-02-15T09:01:55.002Z,-1.10
2018-02-15T09:04:23.700Z,-1.20
2018-02-15T09:06:53.116Z,-1.10
2018-02-15T09:09:22.838Z,-1.00
2018-02-15T09:11:51.435Z,-1.00
2018-02-15T09:14:20.031Z,-0.90
2018-02-15T09:16:49.446Z,-1.30
2018-02-15T09:19:18.043Z,-1.30
2018-02-15T09:21:46.740Z,-1.30
2018-02-15T09:24:16.101Z,-1.00
2018-02-15T09:26:44.753Z,-1.00
2018-02-15T09:29:13.757Z,-0.80
2018-02-15T09:31:43.174Z,-0.60
2018-02-15T09:34:12.588Z,-0.50
2018-02-15T09:36:42.008Z,-0.60
2018-02-15T09:39:11.424Z,-0.70
2018-02-15T09:41:40.123Z,-0.70
2018-02-15T09:44:08.718Z,-0.80
2018-02-15T09:46:38.130Z,-0.70
2018-02-15T09:49:06.674Z,-0.70
2018-02-15T09:51:35.325Z,-0.70
2018-02-15T09:54:03.918Z,-0.60
2018-02-15T09:56:33.334Z,-0.50
2018-02-15T09:59:02.749Z,-0.40
2018-02-15T10:01:31.346Z,-0.40
2018-02-15T10:03:59.930Z,-0.50
2018-02-15T10:06:28.465Z,-0.50
2018-02-15T10:08:57.789Z,-0.30
2018-02-15T10:11:26.366Z,-0.30
2018-02-15T10:13:54.897Z,-0.30
2018-02-15T10:16:23.435Z,-0.40
2018-02-15T10:18:52.864Z,-0.40
2018-02-15T10:21:22.395Z,-0.40
2018-02-15T10:23:51.925Z,-0.40
2018-02-15T10:26:21.357Z,-0.40
2018-02-15T10:28:50.898Z,-0.40
2018-02-15T10:31:19.602Z,-0.40
2018-02-15T10:33:48.238Z,-0.20
2018-02-15T10:36:17.199Z,-0.20
2018-02-15T10:38:45.832Z,-0.10
2018-02-15T10:41:15.262Z,0.10
2018-02-15T10:43:44.997Z,0.00
2018-02-15T10:46:14.528Z,-0.10
2018-02-15T10:48:43.833Z,-0.10
2018-02-15T10:51:12.463Z,-0.10
2018-02-15T10:53:41.891Z,0.00
2018-02-15T10:56:11.222Z,0.00
2018-02-15T10:58:40.522Z,0.10
2018-02-15T11:01:15.503Z,0.10
2018-02-15T11:03:44.798Z,0.10
2018-02-15T11:06:13.328Z,0.10
2018-02-15T11:08:42.761Z,0.00
2018-02-15T11:11:12.191Z,-0.20
2018-02-15T11:13:41.579Z,-0.40
2018-02-15T11:16:10.227Z,-0.40
2018-02-15T11:18:39.964Z,-0.20
2018-02-15T11:21:09.391Z,-0.10
2018-02-15T11:23:38.820Z,0.20
2018-02-15T11:26:08.155Z,0.20
2018-02-15T11:28:37.486Z,0.20
2018-02-15T11:31:06.286Z,0.20
2018-02-15T11:33:35.146Z,0.40
2018-02-15T11:36:04.129Z,0.40
2018-02-15T11:38:32.928Z,0.40
2018-02-15T11:41:01.813Z,0.60
2018-02-15T11:43:30.630Z,0.70
2018-02-15T11:45:59.477Z,0.50
2018-02-15T11:48:29.725Z,0.30
2018-02-15T11:50:58.570Z,0.30
2018-02-15T11:53:27.346Z,0.40
2018-02-15T11:55:56.774Z,0.50
2018-02-15T11:58:26.203Z,0.50
2018-02-15T12:00:55.631Z,0.70
2018-02-15T12:03:25.064Z,0.50
2018-02-15T12:05:54.488Z,0.40
2018-02-15T12:08:23.774Z,0.40
2018-02-15T12:10:52.657Z,0.30
2018-02-15T12:13:21.260Z,0.40
2018-02-15T12:15:49.838Z,0.60
2018-02-15T12:18:18.447Z,0.60
2018-02-15T12:20:48.726Z,0.80
2018-02-15T12:23:17.350Z,0.80
2018-02-15T12:25:45.921Z,1.10
2018-02-15T12:28:14.530Z,1.00
2018-02-15T12:30:43.917Z,1.10
2018-02-15T12:33:12.568Z,1.10
2018-02-15T12:35:42.508Z,1.30
2018-02-15T12:38:11.936Z,0.70
2018-02-15T12:40:41.263Z,0.70
2018-02-15T12:43:10.589Z,0.90
2018-02-15T12:45:40.017Z,1.00
2018-02-15T12:48:09.129Z,1.20
2018-02-15T12:50:38.261Z,1.10
2018-02-15T12:53:07.370Z,1.10
2018-02-15T12:55:36.597Z,1.30
2018-02-15T12:58:05.765Z,1.20
2018-02-15T13:00:34.287Z,1.20
2018-02-15T13:03:03.802Z,1.10
2018-02-15T13:05:32.363Z,1.20
2018-02-15T13:08:01.626Z,1.10
2018-02-15T13:10:31.327Z,1.00
2018-02-15T13:13:11.637Z,1.00
2018-02-15T13:15:51.998Z,0.90
2018-02-15T13:18:21.105Z,1.00
2018-02-15T13:20:49.598Z,1.00
2018-02-15T13:23:19.962Z,1.10
2018-02-15T13:25:48.509Z,1.10
2018-02-15T13:28:28.880Z,1.00
2018-02-15T13:30:57.238Z,1.10
2018-02-15T13:33:25.618Z,1.10
2018-02-15T13:35:53.958Z,1.10
2018-02-15T13:38:22.470Z,1.00
2018-02-15T13:40:50.875Z,1.20
2018-02-15T13:43:19.478Z,1.40
2018-02-15T13:45:48.763Z,1.70
2018-02-15T13:48:17.408Z,1.70
2018-02-15T13:50:46.574Z,1.50
2018-02-15T13:53:14.910Z,1.50
2018-02-15T13:55:43.559Z,1.50
2018-02-15T13:58:12.690Z,1.50
2018-02-15T14:00:41.796Z,1.50
2018-02-15T14:03:10.170Z,1.50
2018-02-15T14:05:38.558Z,1.60
2018-02-15T14:08:06.879Z,1.70
2018-02-15T14:10:35.354Z,1.70
2018-02-15T14:13:04.571Z,1.50
2018-02-15T14:15:33.235Z,1.50
2018-02-15T14:18:02.626Z,1.50
2018-02-15T14:20:32.298Z,1.30
2018-02-15T14:23:01.110Z,1.30
2018-02-15T14:25:29.754Z,1.40
2018-02-15T14:27:58.320Z,1.20
2018-02-15T14:30:26.874Z,1.20
2018-02-15T14:32:55.262Z,1.30
2018-02-15T14:35:24.366Z,1.40
2018-02-15T14:37:53.466Z,1.40
2018-02-15T14:40:21.840Z,1.30
2018-02-15T14:42:50.301Z,1.40
2018-02-15T14:45:18.738Z,1.40
2018-02-15T14:47:47.079Z,1.50
2018-02-15T14:50:16.222Z,1.50
2018-02-15T14:52:44.599Z,1.50
2018-02-15T14:55:12.942Z,1.50
2018-02-15T14:57:42.173Z,1.60
2018-02-15T15:00:10.531Z,1.50
2018-02-15T15:02:39.639Z,1.50
2018-02-15T15:05:08.006Z,1.50
2018-02-15T15:07:36.346Z,1.50
2018-02-15T15:10:04.797Z,1.50
2018-02-15T15:12:34.042Z,1.40
2018-02-15T15:15:02.514Z,1.40
2018-02-15T15:17:30.999Z,1.50
2018-02-15T15:19:59.481Z,1.50
2018-02-15T15:22:27.938Z,1.60
2018-02-15T15:24:57.047Z,1.60
2018-02-15T15:27:25.390Z,1.60
2018-02-15T15:29:53.834Z,1.70
2018-02-15T15:32:22.235Z,1.70
2018-02-15T15:34:50.814Z,1.60
2018-02-15T15:37:19.246Z,1.60
2018-02-15T15:39:49.234Z,1.70
2018-02-15T15:42:17.621Z,1.60
2018-02-15T15:44:45.966Z,1.60
2018-02-15T15:47:14.307Z,1.60
2018-02-15T15:49:42.678Z,1.60
2018-02-15T15:52:11.027Z,1.60
2018-02-15T15:54:39.397Z,1.80
2018-02-15T15:57:07.850Z,2.00
2018-02-15T15:59:36.287Z,2.10
2018-02-15T16:02:04.854Z,2.00
2018-02-15T16:04:33.650Z,2.10
2018-02-15T16:07:02.489Z,2.10
2018-02-15T16:09:31.098Z,2.00
2018-02-15T16:11:59.690Z,2.00
2018-02-15T16:14:28.065Z,2.10
2018-02-15T16:16:56.522Z,2.10
2018-02-15T16:19:24.866Z,2.20
2018-02-15T16:21:53.186Z,2.20
2018-02-15T16:24:21.674Z,2.20
2018-02-15T16:26:50.795Z,2.20
2018-02-15T16:29:19.937Z,2.20
2018-02-15T16:31:48.302Z,2.20
2018-02-15T16:34:16.623Z,2.30
2018-02-15T16:36:45.715Z,2.30
2018-02-15T16:39:14.078Z,2.30
2018-02-15T16:41:42.682Z,2.30
2018-02-15T16:44:11.018Z,2.40
2018-02-15T16:46:39.339Z,2.40
2018-02-15T16:49:07.811Z,2.40
2018-02-15T16:51:36.262Z,2.40
2018-02-15T16:54:04.717Z,2.30
2018-02-15T16:56:33.544Z,2.30
2018-02-15T16:59:02.030Z,2.40
2018-02-15T17:01:30.716Z,2.40
2018-02-15T17:03:59.283Z,2.50
2018-02-15T17:06:27.743Z,2.50
2018-02-15T17:08:56.048Z,2.40
2018-02-15T17:11:24.387Z,2.40
2018-02-15T17:13:52.759Z,2.40
2018-02-15T17:16:21.073Z,2.30
2018-02-15T17:18:49.878Z,2.40
2018-02-15T17:21:18.194Z,2.40
2018-02-15T17:23:46.538Z,2.30
2018-02-15T17:26:15.711Z,2.50
2018-02-15T17:28:44.023Z,2.50
2018-02-15T17:31:12.362Z,2.60
2018-02-15T17:33:40.710Z,2.50
2018-02-15T17:36:09.346Z,2.60
2018-02-15T17:38:37.787Z,2.50
2018-02-15T17:41:06.879Z,2.70
2018-02-15T17:43:35.297Z,2.70
2018-02-15T17:46:03.986Z,2.70
2018-02-15T17:48:34.049Z,2.70
2018-02-15T17:51:03.546Z,2.70
2018-02-15T17:53:32.862Z,2.70
2018-02-15T17:56:03.413Z,2.80
2018-02-15T17:58:32.768Z,2.70
2018-02-15T18:01:02.652Z,2.60
2018-02-15T18:03:32.350Z,2.60
2018-02-15T18:06:02.242Z,2.70
2018-02-15T18:08:33.879Z,2.70
2018-02-15T18:11:04.394Z,2.70
2018-02-15T18:13:33.594Z,2.70
2018-02-15T18:16:03.941Z,2.80
2018-02-15T18:18:33.107Z,2.80
2018-02-15T18:21:02.750Z,2.80
2018-02-15T18:23:32.470Z,2.80
2018-02-15T18:26:02.483Z,2.80
2018-02-15T18:28:33.267Z,2.90
2018-02-15T18:31:04.058Z,2.90
2018-02-15T18:33:33.770Z,2.90
2018-02-15T18:36:04.231Z,2.90
2018-02-15T18:38:33.024Z,2.90
2018-02-15T18:41:02.071Z,2.90
2018-02-15T18:43:30.663Z,2.90
2018-02-15T18:45:59.265Z,2.80
2018-02-15T18:48:27.618Z,2.90
2018-02-15T18:50:56.816Z,2.90
2018-02-15T18:53:25.133Z,2.90
2018-02-15T18:55:54.257Z,2.90
2018-02-15T18:58:23.341Z,2.90
2018-02-15T19:00:51.836Z,2.80
2018-02-15T19:03:20.245Z,2.80
2018-02-15T19:05:49.375Z,2.80
2018-02-15T19:08:17.886Z,2.80
2018-02-15T19:10:46.301Z,2.90
2018-02-15T19:13:14.596Z,2.90
2018-02-15T19:15:43.734Z,3.00
2018-02-15T19:18:12.204Z,3.00
2018-02-15T19:20:40.510Z,3.00
2018-02-15T19:23:08.814Z,3.00
2018-02-15T19:25:37.478Z,3.10
2018-02-15T19:28:06.843Z,3.00
2018-02-15T19:30:36.198Z,3.10
2018-02-15T19:33:05.496Z,3.10
2018-02-15T19:35:34.244Z,3.10
2018-02-15T19:38:02.902Z,3.10
2018-02-15T19:40:31.424Z,3.10
2018-02-15T19:43:00.308Z,3.10
2018-02-15T19:45:28.786Z,3.00
2018-02-15T19:47:57.162Z,3.00
2018-02-15T19:50:25.518Z,3.00
2018-02-15T19:52:53.874Z,3.00
2018-02-15T19:55:22.410Z,3.00
2018-02-15T19:57:51.782Z,3.10
2018-02-15T20:00:20.215Z,3.00
2018-02-15T20:02:48.566Z,3.10
2018-02-15T20:05:17.010Z,3.00
2018-02-15T20:07:45.370Z,3.00
2018-02-15T20:10:13.686Z,3.00
2018-02-15T20:12:42.039Z,3.00
2018-02-15T20:15:10.385Z,2.80
2018-02-15T20:17:38.701Z,2.80
2018-02-15T20:20:12.855Z,2.80
2018-02-15T20:22:41.167Z,2.90
2018-02-15T20:25:10.586Z,2.90
2018-02-15T20:27:44.574Z,2.90
2018-02-15T20:30:13.698Z,2.90
2018-02-15T20:32:42.057Z,2.90
2018-02-15T20:35:10.350Z,2.90
2018-02-15T20:37:45.351Z,2.80
2018-02-15T20:40:19.398Z,2.80
2018-02-15T20:42:48.696Z,2.80
2018-02-15T20:45:17.822Z,2.80
2018-02-15T20:47:46.174Z,2.80
2018-02-15T20:50:20.561Z,2.80
2018-02-15T20:52:54.553Z,2.80
2018-02-15T20:55:28.747Z,2.80
2018-02-15T20:57:57.839Z,2.90
2018-02-15T21:00:26.920Z,2.90
2018-02-15T21:02:55.270Z,2.90
2018-02-15T21:05:23.593Z,2.80
2018-02-15T21:07:52.282Z,2.90
2018-02-15T21:10:20.859Z,2.90
2018-02-15T21:12:49.487Z,2.90
2018-02-15T21:15:18.702Z,2.80
2018-02-15T21:17:47.014Z,2.80
2018-02-15T21:20:15.350Z,2.70
2018-02-15T21:22:43.704Z,2.80
2018-02-15T21:25:12.043Z,2.90
2018-02-15T21:27:40.390Z,2.90
2018-02-15T21:30:08.842Z,2.90
2018-02-15T21:32:37.195Z,2.80
2018-02-15T21:35:05.808Z,2.80
2018-02-15T21:37:34.327Z,2.80
2018-02-15T21:40:02.942Z,2.80
2018-02-15T21:42:31.737Z,2.60
2018-02-15T21:45:00.299Z,2.40
2018-02-15T21:47:29.708Z,2.20
2018-02-15T21:49:58.090Z,2.20
2018-02-15T21:52:26.435Z,2.10
2018-02-15T21:54:54.786Z,2.00
2018-02-15T21:57:23.534Z,1.90
2018-02-15T21:59:52.098Z,1.90
2018-02-15T22:02:20.605Z,1.90
2018-02-15T22:04:50.902Z,1.70
2018-02-15T22:07:19.343Z,1.70
2018-02-15T22:09:47.738Z,1.70
2018-02-15T22:12:16.121Z,1.70
2018-02-15T22:14:44.479Z,1.80
2018-02-15T22:17:12.849Z,1.80
2018-02-15T22:19:41.251Z,1.80
2018-02-15T22:22:10.354Z,1.90
2018-02-15T22:24:38.698Z,1.90
2018-02-15T22:27:07.322Z,2.00
2018-02-15T22:29:36.282Z,1.90
2018-02-15T22:32:04.830Z,1.90
2018-02-15T22:34:33.697Z,1.90
2018-02-15T22:37:02.296Z,2.00
2018-02-15T22:39:31.230Z,1.90
2018-02-15T22:41:59.682Z,1.90
2018-02-15T22:44:29.710Z,2.00
2018-02-15T22:46:58.117Z,2.00
2018-02-15T22:49:27.407Z,2.00
2018-02-15T22:51:56.526Z,1.90
2018-02-15T22:54:24.835Z,1.90
2018-02-15T22:56:53.278Z,2.00
2018-02-15T22:59:21.758Z,2.00
2018-02-15T23:01:50.327Z,2.10
2018-02-15T23:04:18.974Z,2.10
2018-02-15T23:06:47.330Z,2.00
2018-02-15T23:09:15.655Z,1.90
2018-02-15T23:11:44.771Z,1.90
2018-02-15T23:14:13.114Z,1.90
2018-02-15T23:16:42.190Z,1.90
2018-02-15T23:19:10.566Z,1.90
2018-02-15T23:21:38.918Z,1.90
2018-02-15T23:24:08.059Z,1.90
2018-02-15T23:26:37.314Z,2.00
2018-02-15T23:29:06.805Z,2.00
2018-02-15T23:31:35.388Z,1.90
2018-02-15T23:34:04.947Z,2.00
2018-02-15T23:36:33.729Z,1.90
2018-02-15T23:39:02.203Z,2.00
2018-02-15T23:41:30.842Z,1.90
2018-02-15T23:43:59.442Z,2.00
2018-02-15T23:46:27.878Z,2.00
2018-02-15T23:48:56.241Z,2.00
2018-02-15T23:51:24.766Z,2.00
2018-02-15T23:53:53.238Z,2.00
2018-02-15T23:56:21.825Z,2.00
2018-02-15T23:58:50.238Z,2.00
